Enduring Freedom — WDA8351 — position and weather

sailwx.info

Track history (hours):
 
Tides and Currents Weather Stations Pressure Air Temp Water Temp Dewpoint Dewpoint Depression Visibility Wind Speed Wind Dir Waves Ship Positions

Enduring Freedom

Owner: PORT IMPERIAL FERRY CORP, WEEHAWKEN, NJ. More information available from US FCC via Universal Licensing System and Coast Guard Vessel Documentation Center.

Last reported at 2018-Jan-12 15:00 UTC. Time now 2018-Jan-24 11:56 UTC.
Position N 40°46' W 074°00'.
Warning: this ship's position is 11 days out of date.

Length 22 m; draft 2 m.

Type: Passenger vessel. MMSI: 366853420.

Date/timePositionNaut miles runAvg speedWind from/ knotsBaromVisibWave heightAir tempDewpointWater temp
2018-Jan-12 15:00N 40°46' W 074°00'3 6.2
2018-Jan-12 14:30N 40°43' W 074°02'0 0.0
2018-Jan-12 14:00N 40°43' W 074°02'0 0.0
2018-Jan-12 13:31N 40°43' W 074°02'0 0.0
2018-Jan-12 13:01N 40°43' W 074°02'0 0.0
2018-Jan-12 12:30N 40°43' W 074°02'0 0.0
2018-Jan-12 12:00N 40°43' W 074°02'0 0.2
2018-Jan-12 11:30N 40°43' W 074°02'0 0.2
2018-Jan-12 11:00N 40°43' W 074°02'1 2.6
2018-Jan-12 10:30N 40°44' W 074°02'0 0.0
2018-Jan-12 03:01N 40°44' W 074°02'0 0.0
2018-Jan-12 03:01N 40°44' W 074°02'4 8.1
2018-Jan-12 02:30N 40°40' W 074°03'3 5.2
2018-Jan-12 02:00N 40°42' W 074°01'2 4.7
2018-Jan-12 01:31N 40°40' W 074°03'2 4.7
2018-Jan-12 01:00N 40°42' W 074°01'1 2.5
2018-Jan-12 00:30N 40°43' W 074°02'0 0.0
2018-Jan-12 00:00N 40°43' W 074°02'0 0.0
2018-Jan-11 23:30N 40°43' W 074°02'0 0.0
2018-Jan-11 23:00N 40°43' W 074°02'0 0.0
2018-Jan-11 22:31N 40°43' W 074°02'0 0.0
2018-Jan-11 22:01N 40°43' W 074°02'0 0.0
2018-Jan-11 21:30N 40°43' W 074°02'0 0.1
2018-Jan-11 21:01N 40°43' W 074°02'3 1.7
2018-Jan-11 19:05N 40°46' W 074°01'111.9
2018-Jan-11 19:00N 40°45' W 074°01'3 5.2
2018-Jan-11 18:30N 40°43' W 074°02'1 2.8
2018-Jan-11 18:00N 40°42' W 074°00'1 2.8
2018-Jan-11 17:30N 40°43' W 074°02'1 2.9
2018-Jan-11 17:01N 40°42' W 074°00'1 2.9
2018-Jan-11 16:31N 40°43' W 074°02'1 2.8
2018-Jan-11 16:00N 40°42' W 074°00'1 2.7
2018-Jan-11 15:30N 40°43' W 074°02'1 2.7
2018-Jan-11 15:00N 40°42' W 074°00'2 3.6
2018-Jan-11 14:30N 40°43' W 074°03'0 0.0
2018-Jan-11 14:00N 40°43' W 074°03'0 0.1
2018-Jan-11 13:30N 40°43' W 074°03'0 0.0
2018-Jan-11 13:00N 40°43' W 074°03'0 0.0
2018-Jan-11 12:30N 40°43' W 074°03'0 0.0
2018-Jan-11 12:00N 40°43' W 074°03'0 0.0
2018-Jan-11 11:31N 40°43' W 074°03'0 0.0
2018-Jan-11 11:01N 40°43' W 074°03'0 0.1
2018-Jan-11 10:31N 40°43' W 074°03'0 0.0
2018-Jan-11 02:49N 40°43' W 074°02'2 5.2
2018-Jan-11 02:30N 40°41' W 074°02'1 3.0
2018-Jan-11 02:01N 40°42' W 074°01'2 4.0
2018-Jan-11 01:30N 40°41' W 074°03'2 4.1
2018-Jan-11 01:01N 40°42' W 074°01'2 3.0
2018-Jan-11 00:30N 40°43' W 074°03'0 0.1
2018-Jan-11 00:01N 40°43' W 074°03'0 0.0
2018-Jan-10 23:31N 40°43' W 074°03'0 0.1
2018-Jan-10 23:01N 40°43' W 074°03'0 0.0
2018-Jan-10 22:31N 40°43' W 074°03'0 0.1
2018-Jan-10 22:00N 40°43' W 074°03'0 0.1
2018-Jan-10 21:30N 40°43' W 074°03'1 1.2
2018-Jan-10 21:00N 40°43' W 074°02'4 1.7
2018-Jan-10 18:59N 40°46' W 074°01'4 7.5
2018-Jan-10 18:30N 40°43' W 074°02'1 2.7
2018-Jan-10 18:00N 40°42' W 074°00'1 2.6
2018-Jan-10 17:31N 40°43' W 074°02'1 2.4
2018-Jan-10 16:59N 40°42' W 074°00'1 2.9
2018-Jan-10 16:30N 40°43' W 074°02'1 2.7
2018-Jan-10 16:00N 40°42' W 074°00'1 2.6
2018-Jan-10 15:30N 40°43' W 074°02'0 0.2
2018-Jan-10 15:01N 40°43' W 074°02'1 1.0
2018-Jan-10 14:30N 40°43' W 074°03'0 0.1
2018-Jan-10 14:00N 40°43' W 074°03'0 0.0
2018-Jan-10 13:30N 40°43' W 074°03'0 0.0
2018-Jan-10 13:01N 40°43' W 074°03'0 0.0
2018-Jan-10 12:30N 40°43' W 074°03'0 0.0
2018-Jan-10 12:00N 40°43' W 074°03'0 0.0
2018-Jan-10 11:30N 40°43' W 074°03'0 0.0
2018-Jan-10 11:01N 40°43' W 074°03'0 0.0
2018-Jan-10 10:30N 40°43' W 074°03'0 0.0
2018-Jan-10 02:45N 40°43' W 074°02'1 5.2
2018-Jan-10 02:31N 40°41' W 074°02'1 1.8
2018-Jan-10 02:01N 40°42' W 074°01'2 3.0
2018-Jan-10 01:30N 40°41' W 074°02'2 3.0
2018-Jan-10 01:00N 40°42' W 074°01'0 0.6
2018-Jan-10 00:30N 40°42' W 074°00'0 0.0
2018-Jan-10 00:00N 40°42' W 074°00'0 0.0
2018-Jan-09 23:31N 40°42' W 074°00'0 0.1
2018-Jan-09 23:00N 40°42' W 074°00'0 0.1
2018-Jan-09 22:30N 40°42' W 074°00'0 0.0
2018-Jan-09 22:00N 40°42' W 074°00'0 0.3
2018-Jan-09 21:30N 40°42' W 074°00'0 0.3
2018-Jan-09 21:01N 40°42' W 074°00'1 2.8
2018-Jan-09 20:30N 40°43' W 074°02'1 2.6
2018-Jan-09 19:58N 40°42' W 074°00'1 3.0
2018-Jan-09 19:30N 40°43' W 074°02'1 2.7
2018-Jan-09 19:00N 40°42' W 074°00'2 4.4
2018-Jan-09 18:30N 40°44' W 074°02'2 0.7
2018-Jan-09 15:12N 40°46' W 074°01'421.2
2018-Jan-09 15:01N 40°42' W 074°01'1 1.6
2018-Jan-09 14:30N 40°42' W 074°00'0 0.0
2018-Jan-09 14:01N 40°42' W 074°00'0 0.0
2018-Jan-09 13:30N 40°42' W 074°00'0 0.0
2018-Jan-09 13:01N 40°42' W 074°00'0 0.0
2018-Jan-09 12:30N 40°42' W 074°00'0 0.1
2018-Jan-09 12:01N 40°42' W 074°00'0 0.1
2018-Jan-09 11:31N 40°42' W 074°00'1 2.2
2018-Jan-09 11:00N 40°43' W 074°02'4 0.4
2018-Jan-09 01:23N 40°46' W 074°01'411.1
2018-Jan-09 01:00N 40°42' W 074°00'0 0.1
2018-Jan-09 00:30N 40°42' W 074°00'0 0.1
2018-Jan-09 00:00N 40°42' W 074°00'0 0.1
2018-Jan-08 23:30N 40°42' W 074°00'0 0.0
2018-Jan-08 23:00N 40°42' W 074°00'0 0.0
2018-Jan-08 22:30N 40°42' W 074°00'0 0.0
2018-Jan-08 22:00N 40°42' W 074°00'0 0.0
2018-Jan-08 21:30N 40°42' W 074°00'0 0.0
2018-Jan-08 20:59N 40°42' W 074°00'1 2.9
2018-Jan-08 20:30N 40°43' W 074°02'1 2.7
2018-Jan-08 20:00N 40°42' W 074°00'1 2.7
2018-Jan-08 19:30N 40°43' W 074°02'1 2.3
2018-Jan-08 18:56N 40°42' W 074°01'2 5.4
2018-Jan-08 18:30N 40°44' W 074°02'1 0.4
2018-Jan-08 15:13N 40°45' W 074°01'314.2
2018-Jan-08 15:00N 40°42' W 074°00'0 0.3
2018-Jan-08 14:30N 40°42' W 074°00'0 0.2
2018-Jan-08 14:00N 40°42' W 074°00'0 0.0
2018-Jan-08 13:30N 40°42' W 074°00'0 0.0
2018-Jan-08 13:00N 40°42' W 074°00'0 0.0
2018-Jan-08 12:30N 40°42' W 074°00'0 0.0
2018-Jan-08 12:00N 40°42' W 074°00'0 0.0
2018-Jan-08 11:30N 40°42' W 074°00'2 4.0
2018-Jan-08 11:01N 40°44' W 074°01'  
2018-Jan-06 01:22N 40°46' W 074°00'411.0
2018-Jan-06 01:00N 40°42' W 074°00'2 3.2
2018-Jan-06 00:30N 40°43' W 074°02'0 0.3
2018-Jan-06 00:00N 40°43' W 074°03'0 0.0
2018-Jan-05 23:31N 40°43' W 074°03'0 0.0
2018-Jan-05 23:00N 40°43' W 074°03'0 0.0
2018-Jan-05 22:30N 40°43' W 074°03'0 0.1
2018-Jan-05 22:00N 40°43' W 074°03'0 0.0
2018-Jan-05 21:31N 40°43' W 074°03'2 4.8
2018-Jan-05 21:00N 40°45' W 074°01'1 2.9
2018-Jan-05 20:30N 40°46' W 074°01'0 0.0
2018-Jan-05 19:47N 40°46' W 074°01'0 0.0
2018-Jan-05 19:27N 40°46' W 074°01'0 0.0
2018-Jan-05 18:58N 40°46' W 074°01'4 7.8
2018-Jan-05 18:30N 40°43' W 074°02'1 2.8
2018-Jan-05 18:00N 40°42' W 074°00'1 2.6
2018-Jan-05 17:30N 40°43' W 074°02'1 2.6
2018-Jan-05 17:01N 40°42' W 074°00'1 2.6
2018-Jan-05 16:30N 40°43' W 074°02'1 2.6
2018-Jan-05 16:00N 40°42' W 074°00'1 2.6
2018-Jan-05 15:31N 40°43' W 074°02'0 0.3
2018-Jan-05 15:00N 40°43' W 074°02'1 1.0
2018-Jan-05 14:30N 40°43' W 074°03'0 0.0
2018-Jan-05 14:01N 40°43' W 074°03'0 0.1
2018-Jan-05 13:30N 40°43' W 074°03'0 0.0
2018-Jan-05 13:01N 40°43' W 074°03'0 0.0
2018-Jan-05 12:30N 40°43' W 074°03'0 0.1
2018-Jan-05 12:01N 40°43' W 074°03'0 0.0
2018-Jan-05 11:30N 40°43' W 074°03'0 0.1
2018-Jan-05 11:00N 40°43' W 074°03'0 0.0
2018-Jan-05 10:30N 40°43' W 074°03'0 0.0
2018-Jan-05 02:56N 40°43' W 074°03'2 3.5
2018-Jan-05 02:26N 40°42' W 074°00'0 0.6
2018-Jan-05 02:00N 40°42' W 074°01'1 2.5
2018-Jan-05 01:30N 40°41' W 074°02'1 2.4
2018-Jan-05 01:01N 40°42' W 074°01'0 0.3
2018-Jan-05 00:31N 40°42' W 074°00'0 0.2
2018-Jan-05 00:00N 40°42' W 074°00'0 0.1
2018-Jan-04 23:30N 40°42' W 074°00'0 0.2
2018-Jan-04 23:01N 40°42' W 074°00'0 0.1
2018-Jan-04 22:31N 40°42' W 074°00'0 0.1
2018-Jan-04 22:00N 40°42' W 074°00'0 0.1
2018-Jan-04 21:30N 40°42' W 074°00'0 0.1
2018-Jan-04 21:01N 40°42' W 074°00'1 2.9
2018-Jan-04 20:30N 40°43' W 074°02'1 2.8
2018-Jan-04 20:00N 40°42' W 074°00'1 2.8
2018-Jan-04 19:30N 40°43' W 074°02'1 2.8
2018-Jan-04 19:00N 40°42' W 074°00'2 4.3
2018-Jan-04 18:31N 40°44' W 074°02'2 0.7
2018-Jan-04 15:17N 40°46' W 074°01'516.8
2018-Jan-04 15:01N 40°42' W 074°01'1 1.0
2018-Jan-04 14:31N 40°42' W 074°00'0 0.2
2018-Jan-04 14:00N 40°42' W 074°00'0 0.0
2018-Jan-04 13:30N 40°42' W 074°00'0 0.0
2018-Jan-04 13:00N 40°42' W 074°00'0 0.0
2018-Jan-04 12:30N 40°42' W 074°00'0 0.0
2018-Jan-04 12:00N 40°42' W 074°00'0 0.0
2018-Jan-04 11:31N 40°42' W 074°00'1 2.6
2018-Jan-04 11:01N 40°43' W 074°01'3 0.3
2018-Jan-04 01:23N 40°46' W 074°01'411.0
2018-Jan-04 01:01N 40°42' W 074°00'2 3.6
2018-Jan-04 00:30N 40°43' W 074°03'0 0.2
2018-Jan-04 00:00N 40°43' W 074°02'0 0.1
2018-Jan-03 23:30N 40°43' W 074°03'0 0.1
2018-Jan-03 23:01N 40°43' W 074°03'0 0.0
2018-Jan-03 22:31N 40°43' W 074°03'0 0.2
2018-Jan-03 22:00N 40°43' W 074°02'0 0.1
2018-Jan-03 21:30N 40°43' W 074°03'1 1.8
2018-Jan-03 21:01N 40°43' W 074°02'3 5.2
2018-Jan-03 20:24N 40°46' W 074°01'0 0.0
2018-Jan-03 19:24N 40°46' W 074°01'0 0.0
2018-Jan-03 18:57N 40°46' W 074°01'4 8.1
2018-Jan-03 18:31N 40°43' W 074°02'1 2.4
2018-Jan-03 18:00N 40°42' W 074°00'1 2.4
2018-Jan-03 17:31N 40°43' W 074°02'1 2.4
2018-Jan-03 17:00N 40°42' W 074°00'1 2.6
2018-Jan-03 16:30N 40°43' W 074°02'1 2.7
2018-Jan-03 16:00N 40°42' W 074°00'1 2.7
2018-Jan-03 15:30N 40°43' W 074°02'1 2.7
2018-Jan-03 15:01N 40°42' W 074°00'2 3.6
2018-Jan-03 14:31N 40°43' W 074°03'0 0.0
2018-Jan-03 14:00N 40°43' W 074°03'0 0.0
2018-Jan-03 13:30N 40°43' W 074°03'0 0.0
2018-Jan-03 13:00N 40°43' W 074°03'0 0.0
2018-Jan-03 12:30N 40°43' W 074°03'0 0.0
2018-Jan-03 12:00N 40°43' W 074°03'0 0.0
2018-Jan-03 11:30N 40°43' W 074°03'0 0.0
2018-Jan-03 11:00N 40°43' W 074°03'0 0.0
2018-Jan-03 10:30N 40°43' W 074°03'0 0.0
2018-Jan-03 02:56N 40°43' W 074°03'2 3.7
2018-Jan-03 02:30N 40°42' W 074°01'0 0.6
2018-Jan-03 02:01N 40°42' W 074°01'1 1.4
2018-Jan-03 01:31N 40°42' W 074°01'0 0.8
2018-Jan-03 01:01N 40°42' W 074°01'1 2.4
2018-Jan-03 00:30N 40°43' W 074°03'0 0.1
2018-Jan-03 00:00N 40°43' W 074°03'0 0.1
2018-Jan-02 23:30N 40°43' W 074°03'0 0.1
2018-Jan-02 23:01N 40°43' W 074°03'0 0.0
2018-Jan-02 22:31N 40°43' W 074°03'0 0.1
2018-Jan-02 22:00N 40°43' W 074°03'0 0.2
2018-Jan-02 21:30N 40°43' W 074°02'2 3.3
2018-Jan-02 21:00N 40°44' W 074°01'2 1.8
2018-Jan-02 19:45N 40°46' W 074°01'0 0.0
2018-Jan-02 19:19N 40°46' W 074°01'0 0.0
2018-Jan-02 18:58N 40°46' W 074°01'4 7.7
2018-Jan-02 18:30N 40°43' W 074°02'1 2.8
2018-Jan-02 18:00N 40°42' W 074°00'1 2.7
2018-Jan-02 17:31N 40°43' W 074°02'1 2.7
2018-Jan-02 17:00N 40°42' W 074°00'1 2.7
2018-Jan-02 16:31N 40°43' W 074°02'1 2.7
2018-Jan-02 16:01N 40°42' W 074°00'1 2.6
2018-Jan-02 15:30N 40°43' W 074°02'0 0.2
2018-Jan-02 15:00N 40°43' W 074°02'  
Track history (hours):
 
Tides and Currents Weather Stations Pressure Air Temp Water Temp Dewpoint Dewpoint Depression Visibility Wind Speed Wind Dir Waves Ship Positions

Enduring Freedom

Owner: PORT IMPERIAL FERRY CORP, WEEHAWKEN, NJ. More information available from US FCC via Universal Licensing System and Coast Guard Vessel Documentation Center.

Last reported at 2018-Jan-12 15:00 UTC. Time now 2018-Jan-24 11:56 UTC.
Position N 40°46' W 074°00'.
Warning: this ship's position is 11 days out of date.

Length 22 m; draft 2 m.

Type: Passenger vessel. MMSI: 366853420.

Date/timePositionNaut miles runAvg speedWind from/ knotsBaromVisibWave heightAir tempDewpointWater temp
2018-Jan-12 15:00N 40°46' W 074°00'3 6.2
2018-Jan-12 14:30N 40°43' W 074°02'0 0.0
2018-Jan-12 14:00N 40°43' W 074°02'0 0.0
2018-Jan-12 13:31N 40°43' W 074°02'0 0.0
2018-Jan-12 13:01N 40°43' W 074°02'0 0.0
2018-Jan-12 12:30N 40°43' W 074°02'0 0.0
2018-Jan-12 12:00N 40°43' W 074°02'0 0.2
2018-Jan-12 11:30N 40°43' W 074°02'0 0.2
2018-Jan-12 11:00N 40°43' W 074°02'1 2.6
2018-Jan-12 10:30N 40°44' W 074°02'0 0.0
2018-Jan-12 03:01N 40°44' W 074°02'0 0.0
2018-Jan-12 03:01N 40°44' W 074°02'4 8.1
2018-Jan-12 02:30N 40°40' W 074°03'3 5.2
2018-Jan-12 02:00N 40°42' W 074°01'2 4.7
2018-Jan-12 01:31N 40°40' W 074°03'2 4.7
2018-Jan-12 01:00N 40°42' W 074°01'1 2.5
2018-Jan-12 00:30N 40°43' W 074°02'0 0.0
2018-Jan-12 00:00N 40°43' W 074°02'0 0.0
2018-Jan-11 23:30N 40°43' W 074°02'0 0.0
2018-Jan-11 23:00N 40°43' W 074°02'0 0.0
2018-Jan-11 22:31N 40°43' W 074°02'0 0.0
2018-Jan-11 22:01N 40°43' W 074°02'0 0.0
2018-Jan-11 21:30N 40°43' W 074°02'0 0.1
2018-Jan-11 21:01N 40°43' W 074°02'3 1.7
2018-Jan-11 19:05N 40°46' W 074°01'111.9
2018-Jan-11 19:00N 40°45' W 074°01'3 5.2
2018-Jan-11 18:30N 40°43' W 074°02'1 2.8
2018-Jan-11 18:00N 40°42' W 074°00'1 2.8
2018-Jan-11 17:30N 40°43' W 074°02'1 2.9
2018-Jan-11 17:01N 40°42' W 074°00'1 2.9
2018-Jan-11 16:31N 40°43' W 074°02'1 2.8
2018-Jan-11 16:00N 40°42' W 074°00'1 2.7
2018-Jan-11 15:30N 40°43' W 074°02'1 2.7
2018-Jan-11 15:00N 40°42' W 074°00'2 3.6
2018-Jan-11 14:30N 40°43' W 074°03'0 0.0
2018-Jan-11 14:00N 40°43' W 074°03'0 0.1
2018-Jan-11 13:30N 40°43' W 074°03'0 0.0
2018-Jan-11 13:00N 40°43' W 074°03'0 0.0
2018-Jan-11 12:30N 40°43' W 074°03'0 0.0
2018-Jan-11 12:00N 40°43' W 074°03'0 0.0
2018-Jan-11 11:31N 40°43' W 074°03'0 0.0
2018-Jan-11 11:01N 40°43' W 074°03'0 0.1
2018-Jan-11 10:31N 40°43' W 074°03'0 0.0
2018-Jan-11 02:49N 40°43' W 074°02'2 5.2
2018-Jan-11 02:30N 40°41' W 074°02'1 3.0
2018-Jan-11 02:01N 40°42' W 074°01'2 4.0
2018-Jan-11 01:30N 40°41' W 074°03'2 4.1
2018-Jan-11 01:01N 40°42' W 074°01'2 3.0
2018-Jan-11 00:30N 40°43' W 074°03'0 0.1
2018-Jan-11 00:01N 40°43' W 074°03'0 0.0
2018-Jan-10 23:31N 40°43' W 074°03'0 0.1
2018-Jan-10 23:01N 40°43' W 074°03'0 0.0
2018-Jan-10 22:31N 40°43' W 074°03'0 0.1
2018-Jan-10 22:00N 40°43' W 074°03'0 0.1
2018-Jan-10 21:30N 40°43' W 074°03'1 1.2
2018-Jan-10 21:00N 40°43' W 074°02'4 1.7
2018-Jan-10 18:59N 40°46' W 074°01'4 7.5
2018-Jan-10 18:30N 40°43' W 074°02'1 2.7
2018-Jan-10 18:00N 40°42' W 074°00'1 2.6
2018-Jan-10 17:31N 40°43' W 074°02'1 2.4
2018-Jan-10 16:59N 40°42' W 074°00'1 2.9
2018-Jan-10 16:30N 40°43' W 074°02'1 2.7
2018-Jan-10 16:00N 40°42' W 074°00'1 2.6
2018-Jan-10 15:30N 40°43' W 074°02'0 0.2
2018-Jan-10 15:01N 40°43' W 074°02'1 1.0
2018-Jan-10 14:30N 40°43' W 074°03'0 0.1
2018-Jan-10 14:00N 40°43' W 074°03'0 0.0
2018-Jan-10 13:30N 40°43' W 074°03'0 0.0
2018-Jan-10 13:01N 40°43' W 074°03'0 0.0
2018-Jan-10 12:30N 40°43' W 074°03'0 0.0
2018-Jan-10 12:00N 40°43' W 074°03'0 0.0
2018-Jan-10 11:30N 40°43' W 074°03'0 0.0
2018-Jan-10 11:01N 40°43' W 074°03'0 0.0
2018-Jan-10 10:30N 40°43' W 074°03'0 0.0
2018-Jan-10 02:45N 40°43' W 074°02'1 5.2
2018-Jan-10 02:31N 40°41' W 074°02'1 1.8
2018-Jan-10 02:01N 40°42' W 074°01'2 3.0
2018-Jan-10 01:30N 40°41' W 074°02'2 3.0
2018-Jan-10 01:00N 40°42' W 074°01'0 0.6
2018-Jan-10 00:30N 40°42' W 074°00'0 0.0
2018-Jan-10 00:00N 40°42' W 074°00'0 0.0
2018-Jan-09 23:31N 40°42' W 074°00'0 0.1
2018-Jan-09 23:00N 40°42' W 074°00'0 0.1
2018-Jan-09 22:30N 40°42' W 074°00'0 0.0
2018-Jan-09 22:00N 40°42' W 074°00'0 0.3
2018-Jan-09 21:30N 40°42' W 074°00'0 0.3
2018-Jan-09 21:01N 40°42' W 074°00'1 2.8
2018-Jan-09 20:30N 40°43' W 074°02'1 2.6
2018-Jan-09 19:58N 40°42' W 074°00'1 3.0
2018-Jan-09 19:30N 40°43' W 074°02'1 2.7
2018-Jan-09 19:00N 40°42' W 074°00'2 4.4
2018-Jan-09 18:30N 40°44' W 074°02'2 0.7
2018-Jan-09 15:12N 40°46' W 074°01'421.2
2018-Jan-09 15:01N 40°42' W 074°01'1 1.6
2018-Jan-09 14:30N 40°42' W 074°00'0 0.0
2018-Jan-09 14:01N 40°42' W 074°00'0 0.0
2018-Jan-09 13:30N 40°42' W 074°00'0 0.0
2018-Jan-09 13:01N 40°42' W 074°00'0 0.0
2018-Jan-09 12:30N 40°42' W 074°00'0 0.1
2018-Jan-09 12:01N 40°42' W 074°00'0 0.1
2018-Jan-09 11:31N 40°42' W 074°00'1 2.2
2018-Jan-09 11:00N 40°43' W 074°02'4 0.4
2018-Jan-09 01:23N 40°46' W 074°01'411.1
2018-Jan-09 01:00N 40°42' W 074°00'0 0.1
2018-Jan-09 00:30N 40°42' W 074°00'0 0.1
2018-Jan-09 00:00N 40°42' W 074°00'0 0.1
2018-Jan-08 23:30N 40°42' W 074°00'0 0.0
2018-Jan-08 23:00N 40°42' W 074°00'0 0.0
2018-Jan-08 22:30N 40°42' W 074°00'0 0.0
2018-Jan-08 22:00N 40°42' W 074°00'0 0.0
2018-Jan-08 21:30N 40°42' W 074°00'0 0.0
2018-Jan-08 20:59N 40°42' W 074°00'1 2.9
2018-Jan-08 20:30N 40°43' W 074°02'1 2.7
2018-Jan-08 20:00N 40°42' W 074°00'1 2.7
2018-Jan-08 19:30N 40°43' W 074°02'1 2.3
2018-Jan-08 18:56N 40°42' W 074°01'2 5.4
2018-Jan-08 18:30N 40°44' W 074°02'1 0.4
2018-Jan-08 15:13N 40°45' W 074°01'314.2
2018-Jan-08 15:00N 40°42' W 074°00'0 0.3
2018-Jan-08 14:30N 40°42' W 074°00'0 0.2
2018-Jan-08 14:00N 40°42' W 074°00'0 0.0
2018-Jan-08 13:30N 40°42' W 074°00'0 0.0
2018-Jan-08 13:00N 40°42' W 074°00'0 0.0
2018-Jan-08 12:30N 40°42' W 074°00'0 0.0
2018-Jan-08 12:00N 40°42' W 074°00'0 0.0
2018-Jan-08 11:30N 40°42' W 074°00'2 4.0
2018-Jan-08 11:01N 40°44' W 074°01'  
2018-Jan-06 01:22N 40°46' W 074°00'411.0
2018-Jan-06 01:00N 40°42' W 074°00'2 3.2
2018-Jan-06 00:30N 40°43' W 074°02'0 0.3
2018-Jan-06 00:00N 40°43' W 074°03'0 0.0
2018-Jan-05 23:31N 40°43' W 074°03'0 0.0
2018-Jan-05 23:00N 40°43' W 074°03'0 0.0
2018-Jan-05 22:30N 40°43' W 074°03'0 0.1
2018-Jan-05 22:00N 40°43' W 074°03'0 0.0
2018-Jan-05 21:31N 40°43' W 074°03'2 4.8
2018-Jan-05 21:00N 40°45' W 074°01'1 2.9
2018-Jan-05 20:30N 40°46' W 074°01'0 0.0
2018-Jan-05 19:47N 40°46' W 074°01'0 0.0
2018-Jan-05 19:27N 40°46' W 074°01'0 0.0
2018-Jan-05 18:58N 40°46' W 074°01'4 7.8
2018-Jan-05 18:30N 40°43' W 074°02'1 2.8
2018-Jan-05 18:00N 40°42' W 074°00'1 2.6
2018-Jan-05 17:30N 40°43' W 074°02'1 2.6
2018-Jan-05 17:01N 40°42' W 074°00'1 2.6
2018-Jan-05 16:30N 40°43' W 074°02'1 2.6
2018-Jan-05 16:00N 40°42' W 074°00'1 2.6
2018-Jan-05 15:31N 40°43' W 074°02'0 0.3
2018-Jan-05 15:00N 40°43' W 074°02'1 1.0
2018-Jan-05 14:30N 40°43' W 074°03'0 0.0
2018-Jan-05 14:01N 40°43' W 074°03'0 0.1
2018-Jan-05 13:30N 40°43' W 074°03'0 0.0
2018-Jan-05 13:01N 40°43' W 074°03'0 0.0
2018-Jan-05 12:30N 40°43' W 074°03'0 0.1
2018-Jan-05 12:01N 40°43' W 074°03'0 0.0
2018-Jan-05 11:30N 40°43' W 074°03'0 0.1
2018-Jan-05 11:00N 40°43' W 074°03'0 0.0
2018-Jan-05 10:30N 40°43' W 074°03'0 0.0
2018-Jan-05 02:56N 40°43' W 074°03'2 3.5
2018-Jan-05 02:26N 40°42' W 074°00'0 0.6
2018-Jan-05 02:00N 40°42' W 074°01'1 2.5
2018-Jan-05 01:30N 40°41' W 074°02'1 2.4
2018-Jan-05 01:01N 40°42' W 074°01'0 0.3
2018-Jan-05 00:31N 40°42' W 074°00'0 0.2
2018-Jan-05 00:00N 40°42' W 074°00'0 0.1
2018-Jan-04 23:30N 40°42' W 074°00'0 0.2
2018-Jan-04 23:01N 40°42' W 074°00'0 0.1
2018-Jan-04 22:31N 40°42' W 074°00'0 0.1
2018-Jan-04 22:00N 40°42' W 074°00'0 0.1
2018-Jan-04 21:30N 40°42' W 074°00'0 0.1
2018-Jan-04 21:01N 40°42' W 074°00'1 2.9
2018-Jan-04 20:30N 40°43' W 074°02'1 2.8
2018-Jan-04 20:00N 40°42' W 074°00'1 2.8
2018-Jan-04 19:30N 40°43' W 074°02'1 2.8
2018-Jan-04 19:00N 40°42' W 074°00'2 4.3
2018-Jan-04 18:31N 40°44' W 074°02'2 0.7
2018-Jan-04 15:17N 40°46' W 074°01'516.8
2018-Jan-04 15:01N 40°42' W 074°01'1 1.0
2018-Jan-04 14:31N 40°42' W 074°00'0 0.2
2018-Jan-04 14:00N 40°42' W 074°00'0 0.0
2018-Jan-04 13:30N 40°42' W 074°00'0 0.0
2018-Jan-04 13:00N 40°42' W 074°00'0 0.0
2018-Jan-04 12:30N 40°42' W 074°00'0 0.0
2018-Jan-04 12:00N 40°42' W 074°00'0 0.0
2018-Jan-04 11:31N 40°42' W 074°00'1 2.6
2018-Jan-04 11:01N 40°43' W 074°01'3 0.3
2018-Jan-04 01:23N 40°46' W 074°01'411.0
2018-Jan-04 01:01N 40°42' W 074°00'2 3.6
2018-Jan-04 00:30N 40°43' W 074°03'0 0.2
2018-Jan-04 00:00N 40°43' W 074°02'0 0.1
2018-Jan-03 23:30N 40°43' W 074°03'0 0.1
2018-Jan-03 23:01N 40°43' W 074°03'0 0.0
2018-Jan-03 22:31N 40°43' W 074°03'0 0.2
2018-Jan-03 22:00N 40°43' W 074°02'0 0.1
2018-Jan-03 21:30N 40°43' W 074°03'1 1.8
2018-Jan-03 21:01N 40°43' W 074°02'3 5.2
2018-Jan-03 20:24N 40°46' W 074°01'0 0.0
2018-Jan-03 19:24N 40°46' W 074°01'0 0.0
2018-Jan-03 18:57N 40°46' W 074°01'4 8.1
2018-Jan-03 18:31N 40°43' W 074°02'1 2.4
2018-Jan-03 18:00N 40°42' W 074°00'1 2.4
2018-Jan-03 17:31N 40°43' W 074°02'1 2.4
2018-Jan-03 17:00N 40°42' W 074°00'1 2.6
2018-Jan-03 16:30N 40°43' W 074°02'1 2.7
2018-Jan-03 16:00N 40°42' W 074°00'1 2.7
2018-Jan-03 15:30N 40°43' W 074°02'1 2.7
2018-Jan-03 15:01N 40°42' W 074°00'2 3.6
2018-Jan-03 14:31N 40°43' W 074°03'0 0.0
2018-Jan-03 14:00N 40°43' W 074°03'0 0.0
2018-Jan-03 13:30N 40°43' W 074°03'0 0.0
2018-Jan-03 13:00N 40°43' W 074°03'0 0.0
2018-Jan-03 12:30N 40°43' W 074°03'0 0.0
2018-Jan-03 12:00N 40°43' W 074°03'0 0.0
2018-Jan-03 11:30N 40°43' W 074°03'0 0.0
2018-Jan-03 11:00N 40°43' W 074°03'0 0.0
2018-Jan-03 10:30N 40°43' W 074°03'0 0.0
2018-Jan-03 02:56N 40°43' W 074°03'2 3.7
2018-Jan-03 02:30N 40°42' W 074°01'0 0.6
2018-Jan-03 02:01N 40°42' W 074°01'1 1.4
2018-Jan-03 01:31N 40°42' W 074°01'0 0.8
2018-Jan-03 01:01N 40°42' W 074°01'1 2.4
2018-Jan-03 00:30N 40°43' W 074°03'0 0.1
2018-Jan-03 00:00N 40°43' W 074°03'0 0.1
2018-Jan-02 23:30N 40°43' W 074°03'0 0.1
2018-Jan-02 23:01N 40°43' W 074°03'0 0.0
2018-Jan-02 22:31N 40°43' W 074°03'0 0.1
2018-Jan-02 22:00N 40°43' W 074°03'0 0.2
2018-Jan-02 21:30N 40°43' W 074°02'2 3.3
2018-Jan-02 21:00N 40°44' W 074°01'2 1.8
2018-Jan-02 19:45N 40°46' W 074°01'0 0.0
2018-Jan-02 19:19N 40°46' W 074°01'0 0.0
2018-Jan-02 18:58N 40°46' W 074°01'4 7.7
2018-Jan-02 18:30N 40°43' W 074°02'1 2.8
2018-Jan-02 18:00N 40°42' W 074°00'1 2.7
2018-Jan-02 17:31N 40°43' W 074°02'1 2.7
2018-Jan-02 17:00N 40°42' W 074°00'1 2.7
2018-Jan-02 16:31N 40°43' W 074°02'1 2.7
2018-Jan-02 16:01N 40°42' W 074°00'1 2.6
2018-Jan-02 15:30N 40°43' W 074°02'0 0.2
2018-Jan-02 15:00N 40°43' W 074°02'  

Dump ship's entire track history